Time;durP1;ratioP1;P1;durP2;ratioP2;P2;SDS_P1;SDS_P2;PMS_P1;PMS_P2;Temp;Humidity;BMP_temperature;BMP_pressure;BME280_temperature;BME280_humidity;BME280_pressure;Samples;Min_cycle;Max_cycle;Signal;HPM_P1;HPM_P2
2022/09/19 00:01:22;;;;;;;;;;;;;;;20.64;57.42;100231.72;5038712;28;4180;-68
2022/09/19 00:03:52;;;;;;;;;;;;;;;20.64;57.70;100222.38;5041616;28;5261;-68
2022/09/19 00:06:19;;;;;;;;;;;;;;;20.65;57.47;100227.44;5041800;28;4210;-68
2022/09/19 00:08:46;;;;;;;;;;;;;;;20.65;57.42;100226.69;5042067;28;4209;-68
2022/09/19 00:11:13;;;;;;;;;;;;;;;20.66;57.55;100228.16;5031784;28;4139;-68
2022/09/19 00:13:44;;;;;;;;;;;;;;;20.65;57.45;100232.44;5039953;28;4220;-68
2022/09/19 00:16:20;;;;;;;;;;;;;;;20.65;57.22;100232.44;5039277;28;5224;-68
2022/09/19 00:18:47;;;;;;;;;;;;;;;20.66;57.53;100233.91;5041918;28;4310;-68
2022/09/19 00:21:20;;;;;;;;;;;;;;;20.63;57.42;100241.75;5035974;28;4152;-69
2022/09/19 00:26:31;;;;;;;;;;;;;;;20.63;57.66;100235.25;5040151;28;5242;-68
2022/09/19 00:28:57;;;;;;;;;;;;;;;20.63;57.57;100238.88;5039650;28;4139;-68
2022/09/19 00:31:24;;;;;;;;;;;;;;;20.64;57.42;100248.25;5036935;28;4461;-68
2022/09/19 00:33:50;;;;;;;;;;;;;;;20.64;57.46;100245.38;5041792;28;4103;-68
2022/09/19 00:36:16;;;;;;;;;;;;;;;20.63;57.24;100249.63;5040194;28;4158;-68
2022/09/19 00:38:43;;;;;;;;;;;;;;;20.59;57.73;100250.25;5055138;28;4190;-68
2022/09/19 00:41:12;;;;;;;;;;;;;;;20.59;57.62;100244.50;5038372;28;4540;-68
2022/09/19 00:43:58;;;;;;;;;;;;;;;20.61;57.47;100258.19;5052005;28;4264;-68
2022/09/19 00:46:25;;;;;;;;;;;;;;;20.63;57.55;100246.75;5037628;28;4333;-68
2022/09/19 00:48:56;;;;;;;;;;;;;;;20.60;57.51;100253.84;5039277;28;4147;-68
2022/09/19 00:51:31;;;;;;;;;;;;;;;20.61;57.60;100252.44;5040553;28;4116;-68
2022/09/19 00:53:58;;;;;;;;;;;;;;;20.64;57.43;100259.75;5034019;28;5212;-68
2022/09/19 00:56:25;;;;;;;;;;;;;;;20.64;57.38;100251.13;5038381;28;4679;-68
2022/09/19 00:58:53;;;;;;;;;;;;;;;20.63;57.45;100252.53;5038869;28;4213;-68
2022/09/19 01:01:20;;;;;;;;;;;;;;;20.61;57.37;100250.28;5039203;28;4151;-68
2022/09/19 01:03:46;;;;;;;;;;;;;;;20.57;57.53;100255.94;5040008;28;4225;-68
2022/09/19 01:06:19;;;;;;;;;;;;;;;20.58;57.58;100262.41;5039293;28;5222;-68
2022/09/19 01:08:55;;;;;;;;;;;;;;;20.59;57.49;100258.13;5054533;28;4017;-68
2022/09/19 01:11:25;;;;;;;;;;;;;;;20.57;57.54;100264.56;5052976;28;5457;-68
2022/09/19 01:14:05;;;;;;;;;;;;;;;20.60;57.49;100276.88;5042657;28;4211;-68
2022/09/19 01:16:42;;;;;;;;;;;;;;;20.58;57.52;100279.66;5054502;28;4097;-68
2022/09/19 01:19:23;;;;;;;;;;;;;;;20.59;57.49;100275.38;5040674;28;4134;-68
2022/09/19 01:21:54;;;;;;;;;;;;;;;20.58;57.40;100274.66;5048806;28;5692;-68
2022/09/19 01:24:40;;;;;;;;;;;;;;;20.57;57.46;100281.81;5053805;28;4187;-68
2022/09/19 01:27:18;;;;;;;;;;;;;;;20.56;57.52;100270.94;5052488;28;4141;-68
2022/09/19 01:29:45;;;;;;;;;;;;;;;20.56;57.47;100276.69;5049089;28;4330;-68
2022/09/19 01:32:13;;;;;;;;;;;;;;;20.57;57.58;100272.44;5045287;28;5416;-68
2022/09/19 01:34:42;;;;;;;;;;;;;;;20.56;57.60;100282.44;5037485;28;4151;-68
2022/09/19 01:37:12;;;;;;;;;;;;;;;20.55;57.53;100278.84;5051204;28;4643;-68
2022/09/19 01:39:40;;;;;;;;;;;;;;;20.57;57.53;100283.94;5053966;28;5685;-68
2022/09/19 01:42:06;;;;;;;;;;;;;;;20.55;57.31;100281.72;5043185;28;5313;-68
2022/09/19 01:44:33;;;;;;;;;;;;;;;20.55;57.50;100289.59;5035101;28;5723;-68
2022/09/19 01:47:05;;;;;;;;;;;;;;;20.58;57.46;100291.19;5043375;28;4132;-68
2022/09/19 01:49:41;;;;;;;;;;;;;;;20.54;57.49;100297.47;5053209;28;4228;-68
2022/09/19 01:52:13;;;;;;;;;;;;;;;20.54;57.33;100291.00;5048486;28;4152;-68
2022/09/19 01:54:43;;;;;;;;;;;;;;;20.55;57.43;100298.22;5043148;28;4589;-68
2022/09/19 01:57:22;;;;;;;;;;;;;;;20.54;57.29;100294.59;5038564;28;4183;-68
2022/09/19 02:00:05;;;;;;;;;;;;;;;20.54;57.53;100299.63;5050283;28;4084;-68
2022/09/19 02:03:01;;;;;;;;;;;;;;;20.55;57.48;100309.72;5037056;28;5616;-68
2022/09/19 02:05:50;;;;;;;;;;;;;;;20.54;57.46;100314.00;5030069;28;5620;-68
2022/09/19 02:08:28;;;;;;;;;;;;;;;20.53;57.27;100313.28;5017080;28;5229;-68
2022/09/19 02:10:57;;;;;;;;;;;;;;;20.53;57.54;100318.28;5018625;28;4134;-68
2022/09/19 02:13:31;;;;;;;;;;;;;;;20.51;57.52;100316.06;5049403;28;4146;-68
2022/09/19 02:16:06;;;;;;;;;;;;;;;20.51;57.65;100311.03;5043004;28;5558;-68
2022/09/19 02:18:35;;;;;;;;;;;;;;;20.55;57.42;100316.22;5038165;28;4089;-68
2022/09/19 02:21:03;;;;;;;;;;;;;;;20.51;57.54;100313.94;5020034;28;4519;-68
2022/09/19 02:23:30;;;;;;;;;;;;;;;20.51;57.37;100311.03;5022104;28;4538;-68
2022/09/19 02:25:58;;;;;;;;;;;;;;;20.51;57.68;100321.81;5052775;28;5200;-68
2022/09/19 02:28:29;;;;;;;;;;;;;;;20.52;57.45;100326.16;5042127;28;4141;-68
2022/09/19 02:30:55;;;;;;;;;;;;;;;20.49;57.38;100319.59;5034988;28;4706;-68
2022/09/19 02:33:22;;;;;;;;;;;;;;;20.48;57.62;100323.16;5051550;28;4533;-68
2022/09/19 02:36:01;;;;;;;;;;;;;;;20.48;57.60;100323.88;5035218;28;4550;-68
2022/09/19 02:38:33;;;;;;;;;;;;;;;20.47;57.40;100333.91;5025550;28;5676;-69
2022/09/19 02:41:04;;;;;;;;;;;;;;;20.47;57.64;100333.16;5034325;28;5252;-68
2022/09/19 02:43:37;;;;;;;;;;;;;;;20.49;57.36;100336.84;5043499;28;5308;-68
2022/09/19 02:46:05;;;;;;;;;;;;;;;20.47;57.44;100345.41;5031454;28;5482;-68
2022/09/19 02:48:44;;;;;;;;;;;;;;;20.49;57.35;100339.72;5033331;28;5895;-68
2022/09/19 02:51:20;;;;;;;;;;;;;;;20.51;57.39;100342.69;5033674;28;5751;-68
2022/09/19 02:53:48;;;;;;;;;;;;;;;20.47;57.52;100345.41;5035722;28;5632;-68
2022/09/19 02:56:19;;;;;;;;;;;;;;;20.49;57.45;100345.47;5050656;28;5415;-68
2022/09/19 02:58:48;;;;;;;;;;;;;;;20.47;57.27;100345.41;5053135;28;4137;-68
2022/09/19 03:01:15;;;;;;;;;;;;;;;20.48;57.49;100352.66;5051637;28;4568;-68
2022/09/19 03:04:11;;;;;;;;;;;;;;;20.50;57.22;100349.84;5051026;28;4145;-68
2022/09/19 03:06:47;;;;;;;;;;;;;;;20.48;57.29;100349.03;5049915;28;5662;-68
2022/09/19 03:09:15;;;;;;;;;;;;;;;20.46;57.51;100348.97;5050106;28;4606;-68
2022/09/19 03:11:42;;;;;;;;;;;;;;;20.47;57.25;100351.16;5050484;28;4341;-68
2022/09/19 03:14:10;;;;;;;;;;;;;;;20.46;57.56;100355.44;5048778;28;4519;-68
2022/09/19 03:16:38;;;;;;;;;;;;;;;20.50;57.27;100352.72;5042423;28;4132;-69
2022/09/19 03:19:05;;;;;;;;;;;;;;;20.47;57.35;100354.03;5048443;28;5583;-68
2022/09/19 03:21:31;;;;;;;;;;;;;;;20.47;57.34;100362.66;5038933;28;4567;-68
2022/09/19 03:23:59;;;;;;;;;;;;;;;20.46;57.36;100366.94;5051942;28;4753;-68
2022/09/19 03:26:28;;;;;;;;;;;;;;;20.46;57.30;100363.34;5055728;28;5884;-68
2022/09/19 03:28:54;;;;;;;;;;;;;;;20.44;57.30;100372.63;5056679;28;4126;-68
2022/09/19 03:31:22;;;;;;;;;;;;;;;20.47;57.43;100374.16;5042626;28;6272;-68
2022/09/19 03:33:49;;;;;;;;;;;;;;;20.46;57.42;100366.22;5046111;28;5504;-68
2022/09/19 03:36:15;;;;;;;;;;;;;;;20.47;57.27;100371.28;5041986;28;5576;-68
2022/09/19 03:38:45;;;;;;;;;;;;;;;20.49;57.30;100379.25;5056966;28;5605;-68
2022/09/19 03:41:18;;;;;;;;;;;;;;;20.45;57.18;100382.72;5036494;28;5166;-68
2022/09/19 03:43:44;;;;;;;;;;;;;;;20.45;57.26;100385.59;5038433;28;4258;-68
2022/09/19 03:46:13;;;;;;;;;;;;;;;20.46;57.32;100384.19;5040018;28;5687;-69
2022/09/19 03:48:41;;;;;;;;;;;;;;;20.45;57.46;100379.09;5036467;28;5616;-68
2022/09/19 03:51:07;;;;;;;;;;;;;;;20.45;57.47;100384.84;5044276;28;5241;-68
2022/09/19 03:53:33;;;;;;;;;;;;;;;20.45;57.45;100387.72;5036123;28;4190;-69
2022/09/19 03:56:02;;;;;;;;;;;;;;;20.45;57.46;100393.47;5050450;28;5702;-68
2022/09/19 03:58:30;;;;;;;;;;;;;;;20.45;57.18;100394.22;5047956;28;4220;-68
2022/09/19 04:00:57;;;;;;;;;;;;;;;20.44;57.19;100398.50;5056056;28;5664;-68
2022/09/19 04:03:24;;;;;;;;;;;;;;;20.43;57.40;100397.03;5054330;28;6511;-68
2022/09/19 04:05:51;;;;;;;;;;;;;;;20.44;57.34;100395.63;5034606;28;5718;-68
2022/09/19 04:08:20;;;;;;;;;;;;;;;20.43;57.19;100408.53;5035947;28;5588;-68
2022/09/19 04:10:47;;;;;;;;;;;;;;;20.44;57.37;100403.53;5056886;28;4180;-68
2022/09/19 04:13:13;;;;;;;;;;;;;;;20.40;57.69;100404.09;5054931;28;5501;-68
2022/09/19 04:15:41;;;;;;;;;;;;;;;20.41;57.42;100411.34;5051830;28;5503;-68
2022/09/19 04:18:10;;;;;;;;;;;;;;;20.44;57.33;100409.28;5054557;28;5587;-68
2022/09/19 04:20:38;;;;;;;;;;;;;;;20.46;57.40;100420.84;5055375;28;5468;-68
2022/09/19 04:23:26;;;;;;;;;;;;;;;20.44;57.39;100423.66;5029218;28;5574;-68
2022/09/19 04:26:25;;;;;;;;;;;;;;;20.41;57.24;100424.94;5054793;28;6299;-68
2022/09/19 04:28:52;;;;;;;;;;;;;;;20.41;57.43;100422.06;5054591;28;4195;-68
2022/09/19 04:31:18;;;;;;;;;;;;;;;20.40;57.26;100426.38;5038385;28;4126;-68
2022/09/19 04:33:48;;;;;;;;;;;;;;;20.39;57.28;100431.38;5049324;28;4832;-68
2022/09/19 04:36:15;;;;;;;;;;;;;;;20.40;57.24;100438.59;5037305;28;5723;-68
2022/09/19 04:38:42;;;;;;;;;;;;;;;20.40;57.35;100432.84;5038687;28;5647;-68
2022/09/19 04:41:20;;;;;;;;;;;;;;;20.43;57.27;100431.53;5038822;28;5570;-68
2022/09/19 04:43:50;;;;;;;;;;;;;;;20.42;57.19;100435.81;5042100;28;4206;-68
2022/09/19 04:46:41;;;;;;;;;;;;;;;20.39;57.32;100436.41;5033175;28;4148;-68
2022/09/19 04:49:09;;;;;;;;;;;;;;;20.40;57.33;100441.47;5054091;28;5613;-68
2022/09/19 04:51:36;;;;;;;;;;;;;;;20.40;57.25;100432.84;5037585;28;5852;-68
2022/09/19 04:54:05;;;;;;;;;;;;;;;20.39;57.24;100442.88;5036338;28;5629;-68
2022/09/19 04:56:31;;;;;;;;;;;;;;;20.42;57.44;100446.56;5037948;28;4871;-68
2022/09/19 04:59:02;;;;;;;;;;;;;;;20.39;57.20;100448.63;5036811;28;4357;-68
2022/09/19 05:01:30;;;;;;;;;;;;;;;20.40;57.19;100449.38;5037848;28;4234;-68
2022/09/19 05:03:57;;;;;;;;;;;;;;;20.39;57.27;100456.53;5045361;28;5549;-68
2022/09/19 05:06:28;;;;;;;;;;;;;;;20.35;57.48;100454.22;5020641;28;5621;-68
2022/09/19 05:08:57;;;;;;;;;;;;;;;20.39;57.40;100453.66;5029785;28;4536;-68
2022/09/19 05:11:46;;;;;;;;;;;;;;;20.39;57.44;100460.13;5039580;28;4558;-68
2022/09/19 05:14:13;;;;;;;;;;;;;;;20.41;57.11;100457.34;5036080;28;5858;-68
2022/09/19 05:16:47;;;;;;;;;;;;;;;20.41;57.12;100463.09;5050469;28;4024;-68
2022/09/19 05:19:13;;;;;;;;;;;;;;;20.39;57.27;100474.53;5055010;28;5174;-68
2022/09/19 05:21:40;;;;;;;;;;;;;;;20.37;57.42;100474.44;5038682;28;4166;-68
2022/09/19 05:24:07;;;;;;;;;;;;;;;20.38;57.38;100478.03;5048375;28;5621;-68
2022/09/19 05:26:34;;;;;;;;;;;;;;;20.35;57.42;100474.34;5046635;28;5466;-68
2022/09/19 05:29:07;;;;;;;;;;;;;;;20.37;57.20;100483.06;5051647;28;5629;-68
2022/09/19 05:31:45;;;;;;;;;;;;;;;20.37;57.27;100485.94;5036888;28;4097;-68
2022/09/19 05:34:20;;;;;;;;;;;;;;;20.37;57.35;100485.94;5011965;28;5310;-68
2022/09/19 05:36:47;;;;;;;;;;;;;;;20.34;57.37;100498.00;5036249;28;5654;-68
2022/09/19 05:39:17;;;;;;;;;;;;;;;20.33;57.28;100490.78;5035474;28;5423;-68
2022/09/19 05:42:01;;;;;;;;;;;;;;;20.33;57.36;100497.28;5038120;28;5613;-68
2022/09/19 05:44:31;;;;;;;;;;;;;;;20.34;57.34;100510.25;5050448;28;5676;-68
2022/09/19 05:47:00;;;;;;;;;;;;;;;20.36;57.25;100515.34;5042875;28;5623;-68
2022/09/19 05:49:27;;;;;;;;;;;;;;;20.34;57.21;100510.25;5044440;28;5368;-68
2022/09/19 05:51:55;;;;;;;;;;;;;;;20.37;57.13;100514.69;5038078;28;5442;-68
2022/09/19 05:54:25;;;;;;;;;;;;;;;20.34;57.27;100521.00;5052412;28;4631;-68
2022/09/19 05:57:05;;;;;;;;;;;;;;;20.35;57.10;100523.22;5051578;28;4085;-68
2022/09/19 05:59:32;;;;;;;;;;;;;;;20.35;57.14;100531.88;5034521;28;4643;-68
2022/09/19 06:02:01;;;;;;;;;;;;;;;20.33;57.38;100528.91;5054710;28;4344;-68
2022/09/19 06:04:40;;;;;;;;;;;;;;;20.34;57.23;100527.53;5044692;28;4639;-68
2022/09/19 06:07:08;;;;;;;;;;;;;;;20.34;57.26;100539.03;5037823;28;5653;-68
2022/09/19 06:09:35;;;;;;;;;;;;;;;20.35;57.38;100540.50;5037550;28;5658;-68
2022/09/19 06:12:01;;;;;;;;;;;;;;;20.32;57.33;100535.28;5053238;28;5521;-68
2022/09/19 06:14:32;;;;;;;;;;;;;;;20.30;57.44;100542.47;5032092;28;5498;-68
2022/09/19 06:17:01;;;;;;;;;;;;;;;20.33;57.25;100540.41;5030573;28;5747;-68
2022/09/19 06:19:48;;;;;;;;;;;;;;;20.33;57.29;100536.78;5023777;28;4223;-68
2022/09/19 06:22:40;;;;;;;;;;;;;;;20.32;57.25;100544.69;5029731;28;4206;-68
2022/09/19 06:25:08;;;;;;;;;;;;;;;20.32;57.17;100544.69;5036348;28;6624;-68
2022/09/19 06:27:36;;;;;;;;;;;;;;;20.32;57.22;100547.56;5041911;28;4153;-68
2022/09/19 06:30:03;;;;;;;;;;;;;;;20.29;57.31;100549.63;5037752;28;4159;-68
2022/09/19 06:32:47;;;;;;;;;;;;;;;20.31;57.21;100546.06;5049541;28;5604;-68
2022/09/19 06:35:17;;;;;;;;;;;;;;;20.33;57.30;100559.78;5043907;28;5280;-68
2022/09/19 06:37:44;;;;;;;;;;;;;;;20.31;57.42;100554.69;5034889;28;4247;-68
2022/09/19 06:40:11;;;;;;;;;;;;;;;20.31;57.24;100560.44;5035258;28;5535;-68
2022/09/19 06:42:47;;;;;;;;;;;;;;;20.28;57.29;100553.88;5043723;28;4586;-68
2022/09/19 06:45:37;;;;;;;;;;;;;;;20.30;57.28;100567.59;5030567;28;5714;-68
2022/09/19 06:48:34;;;;;;;;;;;;;;;20.29;57.56;100566.09;5053721;28;4635;-68
2022/09/19 06:51:19;;;;;;;;;;;;;;;20.29;57.23;100577.59;5028612;28;5588;-68
2022/09/19 06:53:47;;;;;;;;;;;;;;;20.30;57.19;100585.59;5036301;28;5403;-68
2022/09/19 06:56:13;;;;;;;;;;;;;;;20.28;57.40;100587.63;5051312;28;4522;-68
2022/09/19 06:58:40;;;;;;;;;;;;;;;20.32;57.17;100587.81;5052167;28;4813;-68
2022/09/19 07:01:07;;;;;;;;;;;;;;;20.29;57.30;100595.63;5053473;28;5387;-68
2022/09/19 07:03:34;;;;;;;;;;;;;;;20.29;57.35;100591.97;5044397;28;4153;-68
2022/09/19 07:06:01;;;;;;;;;;;;;;;20.29;57.18;100591.97;5032601;28;5664;-68
2022/09/19 07:08:40;;;;;;;;;;;;;;;20.29;57.21;100606.34;5055034;28;5521;-68
2022/09/19 07:11:08;;;;;;;;;;;;;;;20.29;57.42;100612.88;5042554;28;4620;-68
2022/09/19 07:13:38;;;;;;;;;;;;;;;20.30;57.19;100602.84;5046527;28;4410;-68
2022/09/19 07:16:08;;;;;;;;;;;;;;;20.27;57.26;100612.78;5053268;28;5544;-68
2022/09/19 07:18:36;;;;;;;;;;;;;;;20.27;57.31;100614.91;5036718;28;5664;-68
2022/09/19 07:21:32;;;;;;;;;;;;;;;20.28;57.30;100616.41;5033311;28;4156;-68
2022/09/19 07:24:01;;;;;;;;;;;;;;;20.28;57.16;100620.00;5049799;28;5430;-68
2022/09/19 07:26:46;;;;;;;;;;;;;;;20.26;57.27;100624.94;5039711;28;4214;-68
2022/09/19 07:29:16;;;;;;;;;;;;;;;20.27;57.36;100632.16;5043277;28;5625;-68
2022/09/19 07:31:42;;;;;;;;;;;;;;;20.25;57.48;100618.44;5052570;28;6401;-68
2022/09/19 07:34:09;;;;;;;;;;;;;;;20.27;57.43;100632.16;5045465;28;5281;-68
2022/09/19 07:36:44;;;;;;;;;;;;;;;20.26;57.34;100640.03;5039222;28;4141;-68
2022/09/19 07:39:10;;;;;;;;;;;;;;;20.27;57.38;100632.91;5022702;28;5510;-68
2022/09/19 07:42:06;;;;;;;;;;;;;;;20.25;57.30;100643.59;5020898;28;5701;-68
2022/09/19 07:44:51;;;;;;;;;;;;;;;20.26;57.29;100645.06;5018133;28;4092;-68
2022/09/19 07:47:45;;;;;;;;;;;;;;;20.27;57.22;100640.78;5051916;28;7212;-68
2022/09/19 07:50:44;;;;;;;;;;;;;;;20.26;57.18;100654.41;5013411;28;5701;-68
2022/09/19 07:53:23;;;;;;;;;;;;;;;20.28;57.05;100662.41;5036369;28;4636;-69
2022/09/19 07:55:51;;;;;;;;;;;;;;;20.27;57.21;100660.91;5021432;28;3956;-69
2022/09/19 07:58:18;;;;;;;;;;;;;;;20.25;57.45;100663.72;5031225;28;5615;-68
2022/09/19 08:00:50;;;;;;;;;;;;;;;20.25;57.23;100666.59;5023866;28;5492;-68
2022/09/19 08:03:37;;;;;;;;;;;;;;;20.26;57.20;100671.66;5037636;28;5428;-68
2022/09/19 08:06:03;;;;;;;;;;;;;;;20.26;57.34;100671.66;5035150;28;5771;-68
2022/09/19 08:08:31;;;;;;;;;;;;;;;20.25;57.49;100675.22;5052918;28;4510;-68
2022/09/19 08:11:01;;;;;;;;;;;;;;;20.27;57.20;100678.16;5038592;28;4630;-69
2022/09/19 08:13:29;;;;;;;;;;;;;;;20.25;57.30;100686.72;5042075;28;4185;-68
2022/09/19 08:15:56;;;;;;;;;;;;;;;20.26;57.25;100679.56;5055968;28;5490;-68
2022/09/19 08:18:28;;;;;;;;;;;;;;;20.25;57.37;100678.81;5052146;28;5608;-68
2022/09/19 08:20:55;;;;;;;;;;;;;;;20.26;57.42;100688.19;5041456;28;5261;-68
2022/09/19 08:23:21;;;;;;;;;;;;;;;20.28;57.34;100691.88;5044736;28;4187;-68
2022/09/19 08:25:53;;;;;;;;;;;;;;;20.26;57.17;100699.69;5037404;28;4064;-68
2022/09/19 08:28:20;;;;;;;;;;;;;;;20.25;57.36;100701.81;5053216;28;5036;-68
2022/09/19 08:30:48;;;;;;;;;;;;;;;20.26;57.16;100699.69;5035752;28;4670;-68
2022/09/19 08:33:16;;;;;;;;;;;;;;;20.25;57.21;100703.97;5040097;28;5642;-68
2022/09/19 08:35:42;;;;;;;;;;;;;;;20.26;57.25;100714.06;5047323;28;4081;-68
2022/09/19 08:38:19;;;;;;;;;;;;;;;20.27;57.27;100718.41;5046422;28;5909;-68
2022/09/19 08:40:51;;;;;;;;;;;;;;;20.26;57.22;100722.69;5055101;28;5210;-69
2022/09/19 08:43:41;;;;;;;;;;;;;;;20.24;57.26;100734.09;5056773;28;5691;-68
2022/09/19 08:46:10;;;;;;;;;;;;;;;20.23;57.34;100732.63;5040768;28;5651;-68
2022/09/19 08:48:45;;;;;;;;;;;;;;;20.26;57.31;100722.69;5054239;28;5256;-68
2022/09/19 08:51:31;;;;;;;;;;;;;;;20.25;57.41;100727.69;5040984;28;5407;-69
2022/09/19 08:54:18;;;;;;;;;;;;;;;20.26;57.20;100734.19;5045970;28;5597;-68
2022/09/19 08:56:44;;;;;;;;;;;;;;;20.24;57.29;100742.72;5036274;28;4225;-68
2022/09/19 08:59:21;;;;;;;;;;;;;;;20.24;57.29;100734.09;5047043;28;4129;-68
2022/09/19 09:01:53;;;;;;;;;;;;;;;20.24;57.23;100731.22;5052900;28;4162;-69
2022/09/19 09:04:54;;;;;;;;;;;;;;;20.26;57.44;100734.19;5048212;28;5536;-68
2022/09/19 09:07:35;;;;;;;;;;;;;;;20.25;57.23;100726.97;5046614;28;5181;-69
2022/09/19 09:10:45;;;;;;;;;;;;;;;20.25;57.27;100730.56;5015558;28;4167;-69
2022/09/19 09:13:15;;;;;;;;;;;;;;;20.28;57.12;100731.41;5003583;28;4216;-68
2022/09/19 09:16:00;;;;;;;;;;;;;;;20.30;57.30;100731.50;5009159;28;3990;-68
2022/09/19 09:18:35;;;;;;;;;;;;;;;20.32;57.26;100731.59;5055788;28;6079;-68
2022/09/19 09:21:08;;;;;;;;;;;;;;;20.33;57.23;100733.06;5054515;28;4037;-68
2022/09/19 09:23:35;;;;;;;;;;;;;;;20.30;57.15;100734.38;5055864;28;4538;-68
2022/09/19 09:26:16;;;;;;;;;;;;;;;20.32;57.04;100733.72;5057256;28;4040;-68
2022/09/19 09:28:45;;;;;;;;;;;;;;;20.29;57.36;100730.00;5037803;28;3954;-68
2022/09/19 09:31:25;;;;;;;;;;;;;;;20.31;57.12;100738.72;5044205;28;4595;-68
2022/09/19 09:34:07;;;;;;;;;;;;;;;20.32;57.07;100736.59;5055160;28;3973;-68
2022/09/19 09:36:42;;;;;;;;;;;;;;;20.33;57.10;100735.94;5042385;28;5603;-68
2022/09/19 09:39:12;;;;;;;;;;;;;;;20.32;57.02;100737.34;5035290;28;4375;-68
2022/09/19 09:41:49;;;;;;;;;;;;;;;20.35;56.98;100735.31;5032950;28;4053;-68
2022/09/19 09:44:23;;;;;;;;;;;;;;;20.34;57.21;100740.31;5052909;28;4037;-68
2022/09/19 09:47:10;;;;;;;;;;;;;;;20.34;57.11;100739.56;5041083;28;4051;-69
2022/09/19 09:49:39;;;;;;;;;;;;;;;20.31;57.30;100741.59;5033359;28;4098;-69
2022/09/19 09:52:24;;;;;;;;;;;;;;;20.35;57.02;100738.91;5051796;28;4210;-69
2022/09/19 09:57:58;;;;;;;;;;;;;;;20.35;57.19;100741.03;5054926;28;4510;-69
2022/09/19 10:03:34;;;;;;;;;;;;;;;20.30;57.29;100740.88;5055738;28;5595;-68
2022/09/19 10:06:28;;;;;;;;;;;;;;;20.30;57.15;100740.13;5051888;28;5465;-69
2022/09/19 10:09:08;;;;;;;;;;;;;;;20.31;57.13;100732.97;5034214;28;4552;-69
2022/09/19 10:11:40;;;;;;;;;;;;;;;20.33;57.15;100738.09;5036348;28;5607;-69
2022/09/19 10:14:31;;;;;;;;;;;;;;;20.34;57.03;100746.06;5036569;28;4517;-68
2022/09/19 10:17:15;;;;;;;;;;;;;;;20.34;57.00;100751.81;5037446;28;4529;-69
2022/09/19 10:19:45;;;;;;;;;;;;;;;20.35;57.17;100741.78;5040509;28;5409;-69
2022/09/19 10:22:15;;;;;;;;;;;;;;;20.35;57.16;100747.53;5051012;28;5748;-69
2022/09/19 10:24:55;;;;;;;;;;;;;;;20.34;57.12;100751.81;5048965;28;4254;-69
2022/09/19 10:27:33;;;;;;;;;;;;;;;20.33;57.25;100761.09;5053445;28;4168;-69
2022/09/19 10:30:16;;;;;;;;;;;;;;;20.34;57.24;100771.94;5027804;28;5877;-69
2022/09/19 10:32:44;;;;;;;;;;;;;;;20.34;57.16;100759.69;5032311;28;4044;-68
2022/09/19 10:35:34;;;;;;;;;;;;;;;20.33;56.96;100756.06;5014583;28;4123;-69
2022/09/19 10:38:21;;;;;;;;;;;;;;;20.36;57.06;100760.50;5021989;28;4784;-69
2022/09/19 10:40:58;;;;;;;;;;;;;;;20.34;57.04;100757.56;5033915;28;4061;-69
2022/09/19 10:43:39;;;;;;;;;;;;;;;20.36;57.02;100759.78;5004918;28;4249;-69
2022/09/19 10:46:07;;;;;;;;;;;;;;;20.36;57.24;100754.03;5032378;28;4603;-68
2022/09/19 10:48:39;;;;;;;;;;;;;;;20.36;57.00;100746.13;5046423;28;4284;-68
2022/09/19 10:51:09;;;;;;;;;;;;;;;20.32;57.16;100751.72;5019606;28;4081;-68
2022/09/19 10:53:38;;;;;;;;;;;;;;;20.34;57.20;100769.06;5030452;28;5389;-68
2022/09/19 10:56:26;;;;;;;;;;;;;;;20.33;57.14;100761.81;5032930;28;4210;-68
2022/09/19 10:59:01;;;;;;;;;;;;;;;20.31;57.13;100764.59;5022652;28;5505;-68
2022/09/19 11:01:35;;;;;;;;;;;;;;;20.32;57.34;100760.34;5035464;28;4081;-68
2022/09/19 11:04:05;;;;;;;;;;;;;;;20.32;57.20;100766.09;5028020;28;4539;-67
2022/09/19 11:06:32;;;;;;;;;;;;;;;20.35;57.10;100770.53;5024161;28;5524;-69
2022/09/19 11:08:59;;;;;;;;;;;;;;;20.37;57.06;100773.50;5021392;28;4362;-70
2022/09/19 11:11:46;;;;;;;;;;;;;;;20.35;57.13;100759.03;5024853;28;4625;-70
2022/09/19 11:14:32;;;;;;;;;;;;;;;20.33;57.33;100770.44;5030033;28;4640;-70
2022/09/19 11:17:23;;;;;;;;;;;;;;;20.35;57.12;100766.94;5014260;28;5170;-69
2022/09/19 11:20:14;;;;;;;;;;;;;;;20.32;57.31;100771.09;5029994;28;4183;-67
2022/09/19 11:22:52;;;;;;;;;;;;;;;20.35;57.28;100773.41;5035596;28;5503;-68
2022/09/19 11:25:32;;;;;;;;;;;;;;;20.33;57.45;100770.44;5052976;28;4127;-67
2022/09/19 11:28:13;;;;;;;;;;;;;;;20.37;57.47;100762.00;5048404;28;4133;-67
2022/09/19 11:30:56;;;;;;;;;;;;;;;20.39;57.81;100759.22;5031541;28;5736;-68
2022/09/19 11:33:32;;;;;;;;;;;;;;;20.44;57.70;100760.88;5038910;28;4356;-62
2022/09/19 11:37:03;;;;;;;;;;;;;;;20.44;58.00;100755.13;5031145;28;4447;-66
2022/09/19 11:39:38;;;;;;;;;;;;;;;20.44;57.48;100754.41;5029630;28;5510;-66
2022/09/19 11:42:35;;;;;;;;;;;;;;;20.42;57.90;100763.66;5034920;28;4084;-67
2022/09/19 11:45:11;;;;;;;;;;;;;;;20.45;57.69;100750.13;5042672;28;4089;-70
2022/09/19 11:47:50;;;;;;;;;;;;;;;20.46;57.42;100749.47;5042660;28;5757;-60
2022/09/19 11:50:20;;;;;;;;;;;;;;;20.44;57.46;100749.38;5046604;28;4113;-64
2022/09/19 11:53:07;;;;;;;;;;;;;;;20.37;56.21;100753.38;5053920;28;4043;-59
2022/09/19 11:55:54;;;;;;;;;;;;;;;20.34;55.40;100751.06;5056049;28;4430;-58
2022/09/19 11:58:49;;;;;;;;;;;;;;;20.36;55.35;100754.75;5039691;28;5478;-70
2022/09/19 12:01:31;;;;;;;;;;;;;;;20.34;54.42;100754.69;5035997;28;4202;-70
2022/09/19 12:04:09;;;;;;;;;;;;;;;20.38;54.65;100766.34;5057926;28;5498;-69
2022/09/19 12:06:56;;;;;;;;;;;;;;;20.37;54.21;100759.13;5040324;28;4500;-71
2022/09/19 12:09:27;;;;;;;;;;;;;;;20.41;54.05;100756.44;5038362;28;4646;-71
2022/09/19 12:12:16;;;;;;;;;;;;;;;20.42;53.87;100757.91;5040009;28;4149;-72
2022/09/19 12:15:25;;;;;;;;;;;;;;;20.43;53.93;100802.56;5046507;28;4536;-70
2022/09/19 12:18:13;;;;;;;;;;;;;;;20.42;53.70;100815.44;5045951;28;4200;-72
2022/09/19 12:20:43;;;;;;;;;;;;;;;20.30;53.31;100815.63;5056630;28;6689;-72
2022/09/19 12:26:00;;;;;;;;;;;;;;;20.26;51.62;100820.44;5055419;28;5205;-68
2022/09/19 12:28:30;;;;;;;;;;;;;;;20.06;51.90;100808.75;5054027;28;4171;-67
2022/09/19 12:30:58;;;;;;;;;;;;;;;20.05;51.88;100813.75;5033619;28;4876;-66
2022/09/19 12:33:45;;;;;;;;;;;;;;;20.22;51.97;100826.00;5056155;28;6475;-66
2022/09/19 12:36:20;;;;;;;;;;;;;;;20.32;51.93;100851.59;5040611;28;4563;-66
2022/09/19 12:38:56;;;;;;;;;;;;;;;20.36;51.90;100852.53;5057383;28;5527;-66
2022/09/19 12:41:25;;;;;;;;;;;;;;;20.34;53.49;100866.84;5045075;28;5598;-66
2022/09/19 12:44:13;;;;;;;;;;;;;;;20.33;54.41;100842.34;5056360;28;5331;-65
2022/09/19 12:46:55;;;;;;;;;;;;;;;20.33;55.21;100809.97;5051852;28;4135;-66
2022/09/19 12:49:54;;;;;;;;;;;;;;;20.34;55.15;100800.72;5053510;28;4193;-65
2022/09/19 12:52:23;;;;;;;;;;;;;;;20.35;55.86;100804.31;5020339;28;5471;-65
2022/09/19 12:55:03;;;;;;;;;;;;;;;20.33;55.90;100793.44;5026529;28;4700;-65
2022/09/19 12:57:39;;;;;;;;;;;;;;;20.34;55.99;100803.59;5050379;28;4954;-65
2022/09/19 13:00:06;;;;;;;;;;;;;;;20.34;56.09;100809.34;5034250;28;4170;-65
2022/09/19 13:02:34;;;;;;;;;;;;;;;20.35;56.02;100816.56;5017042;28;5609;-65
2022/09/19 13:05:01;;;;;;;;;;;;;;;20.36;56.28;100817.28;5021570;28;4216;-65
2022/09/19 13:07:31;;;;;;;;;;;;;;;20.34;56.48;100814.31;5022020;28;4194;-65
2022/09/19 13:10:03;;;;;;;;;;;;;;;20.35;56.67;100813.69;5019922;28;4629;-65
2022/09/19 13:12:36;;;;;;;;;;;;;;;20.33;56.44;100813.59;5055928;28;4115;-65
2022/09/19 13:15:05;;;;;;;;;;;;;;;20.33;56.69;100813.59;5039081;28;5526;-65
2022/09/19 13:25:50;;;;;;;;;;;;;;;20.35;56.70;100824.44;5054502;28;4223;-66
2022/09/19 13:28:17;;;;;;;;;;;;;;;20.36;56.66;100823.78;5040932;28;4589;-65
2022/09/19 13:30:51;;;;;;;;;;;;;;;20.34;56.96;100829.47;5040740;28;5758;-65
2022/09/19 13:33:36;;;;;;;;;;;;;;;20.33;56.97;100822.22;5041288;28;4079;-65
2022/09/19 13:36:07;;;;;;;;;;;;;;;20.33;56.85;100824.34;5039741;28;4079;-66
2022/09/19 13:38:41;;;;;;;;;;;;;;;20.34;57.00;100820.06;5040799;28;5390;-65
2022/09/19 13:41:09;;;;;;;;;;;;;;;20.34;56.92;100826.59;5054626;28;4477;-66
2022/09/19 13:43:48;;;;;;;;;;;;;;;20.33;56.89;100825.09;5053401;28;4206;-65